Tavares, Brazil
Current Conditions -  °F | °C
As of 6:00 PM on Friday 24 Oct 2014 (Local Time) from SBJU Reporting Station
Clear Clear  
Wind Chill: 93°   Ceiling: Unl
Heat Index: 93°   Visibility: 6mi
Dew Point: 59°   Wind: 6mph
Humidity: 32%   Direction: 210°SSW
Pressure: 29.88"   Gusts: NA
Location:  7.64°S, 37.88°W
Report Text: SBJU 242100Z 21005KT CAVOK 34/15 Q1012
Loading
Personal Weather Stations






























Interactive Weather Map
Tropical Storm Tracking
New forecast layout! Learn more

10-Day Weather Forecast

Advertisements
Track Severe Weather on mobile